Time;durP1;ratioP1;P1;durP2;ratioP2;P2;SDS_P1;SDS_P2;PMS_P1;PMS_P2;Temp;Humidity;BMP_temperature;BMP_pressure;BME280_temperature;BME280_humidity;BME280_pressure;Samples;Min_cycle;Max_cycle;Signal;HPM_P1;HPM_P2
2021/06/12 09:50:11;;;;;;;11.10;1.88;;;;;;;30.79;25.32;100521.41;5089167;27;20366;-74
2021/06/12 09:52:50;;;;;;;6.72;1.65;;;;;;;30.69;24.64;100514.06;5077772;28;20404;-73
2021/06/12 09:55:30;;;;;;;6.57;1.60;;;;;;;30.85;24.59;100516.38;5082654;28;20068;-72
2021/06/12 09:58:00;;;;;;;5.55;1.40;;;;;;;28.34;26.98;100520.44;5075826;28;20067;-72
2021/06/12 10:00:31;;;;;;;8.80;1.48;;;;;;;29.41;25.76;100520.06;5080553;28;20078;-72
2021/06/12 10:02:59;;;;;;;4.10;1.48;;;;;;;31.76;22.69;100516.28;5070498;28;20414;-72
2021/06/12 10:05:27;;;;;;;6.45;1.42;;;;;;;32.53;21.53;100515.16;5064662;28;20044;-71
2021/06/12 10:07:54;;;;;;;6.13;1.15;;;;;;;30.88;22.59;100507.19;5071272;28;20110;-71
2021/06/12 10:10:23;;;;;;;6.13;1.48;;;;;;;32.24;21.61;100517.63;5074200;28;20340;-72
2021/06/12 10:12:51;;;;;;;6.43;1.35;;;;;;;34.05;19.29;100521.41;5071772;28;20131;-72
2021/06/12 10:15:18;;;;;;;4.43;1.58;;;;;;;34.38;19.26;100532.91;5078323;28;20052;-73
2021/06/12 10:17:50;;;;;;;4.75;1.45;;;;;;;32.03;20.83;100520.28;5074832;28;20040;-71
2021/06/12 10:20:20;;;;;;;11.23;1.63;;;;;;;32.82;19.63;100523.50;5078863;28;20071;-72
2021/06/12 10:22:48;;;;;;;7.72;1.30;;;;;;;33.03;19.82;100521.63;5077721;28;20044;-72
2021/06/12 10:25:18;;;;;;;5.15;1.13;;;;;;;31.56;20.75;100516.06;5079196;28;20044;-72
2021/06/12 10:27:45;;;;;;;4.72;1.80;;;;;;;30.70;22.08;100506.78;5061298;28;20554;-72
2021/06/12 10:30:14;;;;;;;5.22;1.38;;;;;;;31.47;21.56;100522.19;5078926;28;20449;-71
2021/06/12 10:32:49;;;;;;;6.15;1.27;;;;;;;32.29;20.04;100522.66;5092798;28;20094;-72
2021/06/12 10:35:19;;;;;;;8.20;1.70;;;;;;;33.88;19.19;100524.84;5089395;28;20052;-71
2021/06/12 10:38:14;;;;;;;4.63;1.17;;;;;;;33.72;19.64;100532.63;5072674;28;20032;-71
2021/06/12 10:40:46;;;;;;;10.45;1.42;;;;;;;32.55;19.47;100531.28;5074609;28;20104;-73
2021/06/12 10:43:21;;;;;;;5.43;1.40;;;;;;;29.82;22.36;100514.38;5077973;28;20044;-74
2021/06/12 10:46:08;;;;;;;15.57;1.95;;;;;;;27.96;24.60;100517.56;5074235;28;20471;-72
2021/06/12 10:48:54;;;;;;;5.13;1.70;;;;;;;28.69;24.35;100534.13;5073371;28;20060;-73
2021/06/12 10:51:27;;;;;;;5.50;1.25;;;;;;;29.06;23.94;100529.78;5078534;28;20110;-72
2021/06/12 10:54:24;;;;;;;2.63;1.10;;;;;;;27.24;26.95;100528.56;5074485;28;20044;-72
2021/06/12 10:56:54;;;;;;;9.95;1.73;;;;;;;27.57;25.84;100530.94;5073159;28;20067;-72
2021/06/12 10:59:36;;;;;;;9.20;1.60;;;;;;;26.58;26.89;100523.66;5073385;28;20353;-72
2021/06/12 11:05:00;;;;;;;9.13;1.60;;;;;;;26.10;27.77;100524.69;5049651;28;20408;-73
2021/06/12 11:07:33;;;;;;;4.57;1.30;;;;;;;28.54;25.10;100536.06;5059187;28;20048;-72
2021/06/12 11:10:12;;;;;;;9.40;1.40;;;;;;;29.88;22.52;100522.00;5064875;28;20072;-73
2021/06/12 11:12:51;;;;;;;7.50;1.83;;;;;;;31.63;21.02;100519.16;5056805;28;20041;-74
2021/06/12 11:15:21;;;;;;;8.25;1.35;;;;;;;32.33;20.61;100521.41;5066567;28;20074;-73
2021/06/12 11:18:22;;;;;;;9.27;1.20;;;;;;;32.06;20.23;100524.56;5057954;28;20071;-74
2021/06/12 11:21:01;;;;;;;5.87;1.53;;;;;;;32.57;19.79;100513.91;5060171;28;20412;-74
2021/06/12 11:23:56;;;;;;;3.88;1.25;;;;;;;31.34;20.51;100518.78;5059450;28;20048;-74
2021/06/12 11:26:23;;;;;;;7.65;1.42;;;;;;;30.32;21.90;100505.19;5066573;28;20044;-74
2021/06/12 11:29:11;;;;;;;9.15;1.27;;;;;;;30.39;22.01;100512.81;5061207;28;20041;-73
2021/06/12 11:31:40;;;;;;;7.05;1.75;;;;;;;30.60;21.96;100524.69;5061662;28;20049;-75
2021/06/12 11:34:21;;;;;;;6.07;1.15;;;;;;;31.41;20.48;100522.72;5059528;28;20120;-74
2021/06/12 11:36:51;;;;;;;8.77;1.13;;;;;;;32.33;19.87;100529.50;5064098;28;20067;-74
2021/06/12 11:39:18;;;;;;;3.38;1.08;;;;;;;32.32;20.00;100517.88;5059836;28;20057;-74
2021/06/12 11:41:46;;;;;;;5.97;1.30;;;;;;;30.49;21.39;100513.84;5062787;28;20348;-73
2021/06/12 11:44:14;;;;;;;9.15;1.20;;;;;;;30.56;22.09;100510.56;5061825;28;20098;-75
2021/06/12 11:46:43;;;;;;;8.98;1.75;;;;;;;29.40;23.23;100512.97;5064191;28;20052;-74
2021/06/12 11:49:12;;;;;;;7.15;1.73;;;;;;;30.24;22.88;100509.44;5057942;28;20052;-74
2021/06/12 11:51:43;;;;;;;3.90;1.38;;;;;;;30.46;22.62;100509.53;5057725;28;20127;-74
2021/06/12 11:54:21;;;;;;;8.63;1.42;;;;;;;31.05;22.40;100520.25;5058583;28;20060;-73
2021/06/12 11:56:49;;;;;;;4.72;1.38;;;;;;;30.49;22.59;100514.72;5048915;28;20065;-73
2021/06/12 11:59:25;;;;;;;7.78;1.42;;;;;;;30.97;21.54;100517.28;5061239;28;20045;-73
2021/06/12 12:01:58;;;;;;;7.60;1.60;;;;;;;29.29;24.34;100525.47;5064103;28;20060;-73
2021/06/12 12:04:36;;;;;;;4.88;1.15;;;;;;;28.24;25.75;100526.53;5065657;28;20083;-73
2021/06/12 12:07:10;;;;;;;8.23;1.85;;;;;;;27.54;26.57;100518.56;5065748;28;20064;-74
2021/06/12 12:09:41;;;;;;;8.45;1.88;;;;;;;26.94;27.08;100517.03;5055017;28;20076;-74
2021/06/12 12:12:10;;;;;;;5.53;1.55;;;;;;;27.04;27.71;100523.56;5060536;28;20068;-73
2021/06/12 12:14:41;;;;;;;8.55;1.50;;;;;;;27.25;27.83;100512.34;5059192;28;20068;-73
2021/06/12 12:17:29;;;;;;;5.50;1.60;;;;;;;26.25;28.93;100507.78;5062543;28;20048;-73
2021/06/12 12:20:04;;;;;;;7.22;1.92;;;;;;;25.29;30.75;100511.47;5062807;28;20070;-72
2021/06/12 12:22:40;;;;;;;6.43;1.60;;;;;;;24.97;31.29;100508.75;5064993;28;20420;-74
2021/06/12 12:25:10;;;;;;;5.93;1.30;;;;;;;24.97;30.94;100507.91;5070574;28;20098;-73
2021/06/12 12:27:39;;;;;;;4.93;1.70;;;;;;;24.66;31.39;100509.47;5061135;28;20044;-74
2021/06/12 12:30:08;;;;;;;5.07;1.45;;;;;;;25.14;31.54;100515.84;5045489;28;20116;-73
2021/06/12 12:32:43;;;;;;;7.38;1.40;;;;;;;24.61;32.42;100510.66;5064973;28;20070;-73
2021/06/12 12:35:15;;;;;;;4.28;1.40;;;;;;;24.30;31.98;100516.72;5045530;28;20051;-73
2021/06/12 12:37:42;;;;;;;7.18;1.63;;;;;;;25.13;31.77;100514.16;5055645;28;20075;-72
2021/06/12 12:40:20;;;;;;;8.82;1.67;;;;;;;25.05;30.78;100521.72;5063639;28;20052;-74
2021/06/12 12:42:59;;;;;;;7.22;2.00;;;;;;;23.88;31.42;100525.03;5055421;28;20451;-74
2021/06/12 12:45:31;;;;;;;6.68;1.27;;;;;;;24.85;31.11;100543.25;5058686;28;20109;-74
2021/06/12 12:47:59;;;;;;;4.50;1.60;;;;;;;25.23;31.27;100534.06;5062923;28;20063;-73
2021/06/12 12:50:26;;;;;;;7.45;1.92;;;;;;;25.22;31.25;100529.69;5065700;28;20044;-74
2021/06/12 12:53:05;;;;;;;7.57;1.50;;;;;;;24.89;30.79;100535.03;5055133;28;20128;-74
2021/06/12 12:55:33;;;;;;;7.53;1.45;;;;;;;24.71;31.75;100541.31;5060332;28;20127;-75
2021/06/12 12:58:00;;;;;;;4.78;1.30;;;;;;;25.22;31.37;100548.41;5064524;28;20048;-72
2021/06/12 13:00:29;;;;;;;6.95;2.13;;;;;;;24.70;32.68;100555.59;5056069;28;20052;-75
2021/06/12 13:03:02;;;;;;;6.82;1.60;;;;;;;24.82;32.25;100551.44;5051866;28;20060;-74
2021/06/12 13:05:39;;;;;;;6.85;1.77;;;;;;;24.99;32.59;100551.44;5075061;28;20190;-74
2021/06/12 13:08:09;;;;;;;7.53;1.75;;;;;;;24.13;32.31;100538.88;5060268;28;20122;-72
2021/06/12 13:10:39;;;;;;;5.57;1.55;;;;;;;23.87;32.83;100552.66;5061937;28;20114;-73
2021/06/12 13:13:09;;;;;;;7.45;1.63;;;;;;;23.92;33.46;100555.97;5061072;28;20131;-72
2021/06/12 13:15:36;;;;;;;8.25;2.17;;;;;;;24.67;32.61;100553.97;5061285;28;20049;-73
2021/06/12 13:18:07;;;;;;;6.90;1.65;;;;;;;24.39;32.50;100555.44;5065328;28;20056;-73
2021/06/12 13:20:36;;;;;;;6.68;1.48;;;;;;;23.98;32.65;100565.50;5051585;28;20546;-74
2021/06/12 13:23:04;;;;;;;9.32;2.30;;;;;;;24.37;32.50;100566.22;5055531;28;20103;-73
2021/06/12 13:25:30;;;;;;;5.70;1.38;;;;;;;24.84;32.20;100574.50;5063411;28;20480;-73
2021/06/12 13:28:03;;;;;;;9.32;2.17;;;;;;;24.42;32.48;100576.66;5061313;28;20112;-73
2021/06/12 13:30:49;;;;;;;6.13;1.52;;;;;;;24.47;32.31;100575.50;5053861;28;20052;-74
2021/06/12 13:33:19;;;;;;;4.78;1.92;;;;;;;24.16;33.15;100586.84;5059721;28;20048;-74
2021/06/12 13:35:52;;;;;;;9.93;2.00;;;;;;;23.91;31.97;100580.94;5055046;28;20053;-73
2021/06/12 13:38:30;;;;;;;7.45;1.38;;;;;;;23.89;31.58;100582.78;5059470;28;20055;-74
2021/06/12 13:41:00;;;;;;;14.50;2.53;;;;;;;23.70;33.38;100577.47;5057251;28;20464;-73
2021/06/12 13:43:45;;;;;;;11.95;2.17;;;;;;;23.43;33.22;100582.28;5061385;28;20412;-73
2021/06/12 13:46:23;;;;;;;13.23;3.75;;;;;;;23.59;34.20;100582.47;5054150;28;20069;-73
2021/06/12 13:48:55;;;;;;;7.95;2.00;;;;;;;23.65;34.27;100576.81;5052892;28;20068;-73
2021/06/12 13:51:23;;;;;;;7.10;1.80;;;;;;;23.54;33.76;100581.81;5058810;28;20041;-74
2021/06/12 13:53:56;;;;;;;9.47;1.67;;;;;;;23.35;34.19;100584.44;5057158;28;20493;-72
2021/06/12 13:56:27;;;;;;;8.35;1.60;;;;;;;23.71;31.89;100584.53;5055812;28;20868;-73
2021/06/12 13:58:56;;;;;;;7.63;1.42;;;;;;;23.09;33.52;100579.41;5054330;28;20057;-72
2021/06/12 14:01:24;;;;;;;4.75;1.40;;;;;;;23.07;32.80;100585.75;5058874;28;20087;-72
2021/06/12 14:03:51;;;;;;;12.77;2.05;;;;;;;23.66;32.80;100581.22;5057290;28;20045;-73
2021/06/12 14:06:17;;;;;;;7.57;1.92;;;;;;;23.53;33.42;100577.41;5057294;28;20479;-73
2021/06/12 14:08:44;;;;;;;10.05;2.03;;;;;;;22.99;33.65;100586.94;5058926;28;20059;-74
2021/06/12 14:11:11;;;;;;;9.38;1.77;;;;;;;23.35;33.86;100586.22;5046085;28;21154;-74
2021/06/12 14:13:38;;;;;;;7.53;1.58;;;;;;;23.73;32.34;100593.34;5060350;28;20052;-74
2021/06/12 14:16:05;;;;;;;12.35;1.70;;;;;;;23.66;32.82;100596.38;5059993;28;20045;-74
2021/06/12 14:18:33;;;;;;;7.43;1.45;;;;;;;23.49;32.53;100596.31;5061605;28;20044;-74
2021/06/12 14:21:01;;;;;;;7.63;1.52;;;;;;;23.44;32.30;100588.47;5059698;28;20072;-73
2021/06/12 14:23:29;;;;;;;16.25;2.03;;;;;;;23.65;32.57;100587.50;5060451;28;20098;-73
2021/06/12 14:25:58;;;;;;;9.43;2.03;;;;;;;23.22;34.47;100580.56;5056451;28;20105;-74
2021/06/12 14:28:26;;;;;;;7.63;1.70;;;;;;;23.38;33.41;100592.28;5061350;28;20126;-73
2021/06/12 14:30:54;;;;;;;4.85;1.70;;;;;;;23.19;33.85;100595.84;5058059;28;20048;-73
2021/06/12 14:33:22;;;;;;;7.00;1.60;;;;;;;22.77;33.76;100598.59;5058235;28;20182;-72
2021/06/12 14:36:08;;;;;;;5.20;1.75;;;;;;;23.01;33.02;100589.53;5061513;28;20123;-73
2021/06/12 14:38:34;;;;;;;13.32;1.90;;;;;;;23.43;33.20;100590.28;5056938;28;20110;-73
2021/06/12 14:41:02;;;;;;;4.13;1.40;;;;;;;23.34;33.73;100601.38;5064061;28;20055;-72
2021/06/12 14:43:32;;;;;;;6.32;1.50;;;;;;;23.02;32.84;100592.13;5062117;28;20060;-72
2021/06/12 14:46:00;;;;;;;7.78;2.05;;;;;;;23.44;32.35;100605.38;5063396;28;20052;-73
2021/06/12 14:48:27;;;;;;;7.57;1.25;;;;;;;23.06;33.17;100605.34;5059773;28;20426;-72
2021/06/12 14:50:54;;;;;;;7.20;1.77;;;;;;;23.17;33.33;100601.25;5060232;28;20056;-72
2021/06/12 14:53:21;;;;;;;5.10;1.42;;;;;;;23.57;32.36;100602.13;5061701;28;20516;-74
2021/06/12 14:55:48;;;;;;;8.32;1.35;;;;;;;23.20;33.62;100601.13;5056925;28;20048;-73
2021/06/12 14:58:15;;;;;;;6.07;1.80;;;;;;;22.78;33.93;100601.19;5058943;28;20040;-74
2021/06/12 15:00:43;;;;;;;7.38;1.58;;;;;;;23.12;34.03;100599.75;5060614;28;20049;-74
2021/06/12 15:03:09;;;;;;;4.78;1.15;;;;;;;23.12;32.46;100602.41;5058019;28;20048;-74
2021/06/12 15:05:36;;;;;;;6.78;1.90;;;;;;;23.59;32.76;100605.59;5055857;28;20496;-72
2021/06/12 15:08:06;;;;;;;6.05;1.77;;;;;;;22.49;33.71;100588.25;5064396;28;20053;-72
2021/06/12 15:10:33;;;;;;;4.85;1.20;;;;;;;23.20;34.05;100595.78;5059555;28;20360;-73
2021/06/12 15:12:59;;;;;;;7.65;1.98;;;;;;;23.26;33.96;100595.50;5058876;28;20515;-73
2021/06/12 15:15:26;;;;;;;5.35;1.30;;;;;;;22.94;34.17;100599.59;5060978;28;20052;-74
2021/06/12 15:17:53;;;;;;;2.85;0.95;;;;;;;22.77;34.68;100594.16;5060297;28;20087;-74
2021/06/12 15:20:21;;;;;;;6.82;1.50;;;;;;;22.98;32.71;100603.00;5052319;28;20113;-76
2021/06/12 15:22:48;;;;;;;4.68;1.30;;;;;;;22.80;34.10;100598.47;5038424;28;20111;-76
2021/06/12 15:25:16;;;;;;;5.93;1.52;;;;;;;22.81;34.86;100597.53;5061892;28;20051;-75
2021/06/12 15:27:43;;;;;;;5.82;1.35;;;;;;;22.83;34.35;100591.19;5049913;28;20044;-74
2021/06/12 15:30:10;;;;;;;4.32;1.20;;;;;;;23.51;33.38;100592.59;5078806;28;20049;-73
2021/06/12 15:32:37;;;;;;;4.30;1.33;;;;;;;22.84;33.68;100597.41;5041306;28;20048;-73
2021/06/12 15:35:05;;;;;;;6.43;1.17;;;;;;;23.09;33.35;100595.41;5060073;28;20051;-75
2021/06/12 15:38:28;;;;;;;8.05;1.58;;;;;;;22.93;33.97;100595.19;5035922;28;20051;-74
2021/06/12 15:40:56;;;;;;;5.38;1.20;;;;;;;22.98;33.54;100584.34;5046830;28;20079;-75
2021/06/12 16:08:03;;;;;;;7.30;1.00;;;;;;;22.65;33.25;100601.75;4842900;29;19929;-73
2021/06/12 16:10:29;;;;;;;6.25;1.13;;;;;;;22.71;33.50;100606.84;4876321;29;20518;-75
2021/06/12 16:13:05;;;;;;;4.90;1.20;;;;;;;22.91;33.03;100604.22;4924294;29;20099;-77
2021/06/12 16:15:33;;;;;;;5.22;1.08;;;;;;;22.37;34.16;100597.59;4885236;29;20094;-76
2021/06/12 16:18:11;;;;;;;10.68;1.55;;;;;;;22.45;33.33;100599.91;4899469;29;20138;-76
2021/06/12 16:20:38;;;;;;;4.22;1.15;;;;;;;22.77;33.26;100598.59;4915977;29;20123;-77
2021/06/12 16:23:09;;;;;;;7.35;1.58;;;;;;;22.42;34.47;100592.94;4892935;29;20073;-76
2021/06/12 16:25:36;;;;;;;4.95;1.20;;;;;;;22.81;34.64;100609.06;4927822;29;20189;-75
2021/06/12 16:28:02;;;;;;;7.57;1.38;;;;;;;22.92;35.45;100598.81;4965664;28;20069;-75
2021/06/12 16:30:30;;;;;;;5.85;1.00;;;;;;;22.64;34.80;100598.22;4983793;28;20073;-74
2021/06/12 16:32:58;;;;;;;6.38;1.20;;;;;;;22.75;34.17;100613.78;5011289;28;20147;-75
2021/06/12 16:35:27;;;;;;;6.25;1.40;;;;;;;22.52;34.75;100610.28;5045356;28;20055;-74
2021/06/12 16:37:58;;;;;;;3.47;1.10;;;;;;;22.58;34.77;100609.16;5041470;28;20450;-75
2021/06/12 16:40:25;;;;;;;10.03;1.30;;;;;;;22.45;35.32;100603.44;5048207;28;20083;-74
2021/06/12 16:42:52;;;;;;;5.72;1.20;;;;;;;22.40;34.99;100613.44;5042367;28;20274;-73
2021/06/12 16:45:20;;;;;;;7.57;1.40;;;;;;;22.30;35.61;100616.56;5035752;28;20052;-73
2021/06/12 16:47:48;;;;;;;9.68;1.58;;;;;;;22.52;35.00;100615.59;5027583;28;20041;-75
2021/06/12 16:50:17;;;;;;;11.98;1.27;;;;;;;22.50;34.89;100616.56;5066221;28;20131;-76
2021/06/12 16:52:45;;;;;;;8.23;1.80;;;;;;;22.60;35.06;100624.13;5062808;28;20052;-76
2021/06/12 16:56:05;;;;;;;10.13;1.38;;;;;;;22.76;34.18;100629.72;5063011;28;20058;-76
2021/06/12 17:00:51;;;;;;;6.07;1.27;;;;;;;22.15;34.83;100631.34;5041442;28;20553;-74
2021/06/12 17:03:18;;;;;;;6.72;1.40;;;;;;;22.10;35.77;100636.84;5065423;28;20048;-76
2021/06/12 17:05:45;;;;;;;7.97;2.13;;;;;;;21.55;36.54;100642.50;5056670;28;20418;-76
2021/06/12 17:08:12;;;;;;;6.47;1.65;;;;;;;21.55;36.44;100627.44;5050671;28;20048;-75
2021/06/12 17:10:39;;;;;;;7.47;1.73;;;;;;;21.79;36.70;100636.25;5041674;28;20048;-76
2021/06/12 17:13:06;;;;;;;7.22;1.95;;;;;;;21.96;36.19;100643.66;5064553;28;20409;-75
2021/06/12 17:15:33;;;;;;;9.45;1.70;;;;;;;21.84;36.10;100639.63;5029297;28;20063;-74
2021/06/12 17:18:00;;;;;;;9.20;1.58;;;;;;;22.29;35.20;100636.97;5064624;28;20058;-76
2021/06/12 17:20:27;;;;;;;3.95;1.50;;;;;;;21.86;35.58;100634.25;5047593;28;20064;-76
2021/06/12 17:22:54;;;;;;;6.13;1.33;;;;;;;21.84;36.19;100636.09;5041959;28;20094;-76
2021/06/12 17:25:26;;;;;;;8.03;1.40;;;;;;;21.73;35.37;100642.69;5045856;28;20053;-75
2021/06/12 17:27:53;;;;;;;6.68;1.40;;;;;;;21.95;36.28;100639.25;5058648;28;20265;-76
2021/06/12 17:30:21;;;;;;;7.50;1.88;;;;;;;21.50;36.71;100642.69;5065062;28;20041;-74
2021/06/12 17:32:48;;;;;;;7.50;1.33;;;;;;;21.89;36.05;100639.44;5061683;28;20085;-74
2021/06/12 17:35:15;;;;;;;3.10;1.13;;;;;;;21.73;36.86;100636.50;5047915;28;20075;-74
2021/06/12 17:37:42;;;;;;;9.63;1.58;;;;;;;21.83;36.38;100640.53;5046111;28;20044;-75
2021/06/12 17:40:09;;;;;;;7.68;1.35;;;;;;;21.90;36.13;100639.38;5042968;28;20048;-75
2021/06/12 17:42:36;;;;;;;7.40;1.75;;;;;;;21.20;37.02;100649.09;5063030;28;20076;-75
2021/06/12 17:45:04;;;;;;;6.10;1.58;;;;;;;21.71;37.15;100649.88;5063707;28;20048;-76
2021/06/12 17:47:31;;;;;;;8.88;1.40;;;;;;;21.88;36.18;100643.03;5059390;28;20098;-74
2021/06/12 17:49:59;;;;;;;6.97;1.63;;;;;;;21.41;36.95;100648.34;5060696;28;20063;-76
2021/06/12 17:52:26;;;;;;;5.15;1.40;;;;;;;21.45;36.78;100643.78;5034316;28;20480;-75
2021/06/12 17:54:53;;;;;;;7.88;1.75;;;;;;;21.58;36.90;100645.91;5063731;28;20559;-75
2021/06/12 17:57:20;;;;;;;4.20;1.30;;;;;;;21.62;36.70;100641.38;5060937;28;20148;-76
2021/06/12 17:59:47;;;;;;;7.90;1.40;;;;;;;21.13;37.33;100652.88;5029883;28;20044;-75
2021/06/12 18:02:14;;;;;;;7.75;1.92;;;;;;;21.03;37.96;100644.38;5041548;28;20056;-75
2021/06/12 18:04:41;;;;;;;4.35;1.15;;;;;;;21.37;37.75;100652.03;5062828;28;20055;-75
2021/06/12 18:07:08;;;;;;;10.48;1.40;;;;;;;21.08;37.99;100653.06;5062951;28;20052;-75
2021/06/12 18:09:35;;;;;;;3.65;1.27;;;;;;;21.29;37.24;100667.41;5038539;28;20081;-75
2021/06/12 18:12:03;;;;;;;6.72;1.63;;;;;;;21.70;38.07;100668.53;5045328;28;20057;-74
2021/06/12 18:14:32;;;;;;;7.25;1.60;;;;;;;21.51;38.97;100673.69;5047407;28;20044;-75
2021/06/12 18:16:59;;;;;;;4.65;1.50;;;;;;;21.56;38.79;100669.06;5046067;28;20063;-75
2021/06/12 18:19:26;;;;;;;8.50;1.65;;;;;;;21.54;38.66;100667.34;5023482;28;20131;-75
2021/06/12 18:21:53;;;;;;;5.97;1.02;;;;;;;21.12;40.00;100664.44;5058895;28;20064;-74
2021/06/12 18:24:20;;;;;;;7.35;1.25;;;;;;;21.15;39.12;100672.34;5033421;28;20480;-75
2021/06/12 18:26:47;;;;;;;3.83;1.27;;;;;;;20.37;40.47;100664.31;5047626;28;20072;-74
2021/06/12 18:29:14;;;;;;;4.65;1.17;;;;;;;20.59;39.69;100672.44;5064025;28;20048;-75
2021/06/12 18:31:42;;;;;;;7.78;1.48;;;;;;;20.65;39.60;100674.91;5028054;28;20124;-75
2021/06/12 18:34:09;;;;;;;5.90;1.30;;;;;;;20.27;40.43;100686.72;5061902;28;20061;-75
2021/06/12 18:36:37;;;;;;;4.88;1.27;;;;;;;20.74;39.66;100684.34;5041951;28;20045;-74
2021/06/12 18:39:06;;;;;;;9.05;1.40;;;;;;;20.66;39.89;100692.56;5069729;28;20040;-75
2021/06/12 18:41:33;;;;;;;3.70;0.98;;;;;;;20.66;39.62;100678.41;5066334;28;20370;-76
2021/06/12 18:44:02;;;;;;;8.63;1.40;;;;;;;20.19;40.22;100679.91;5067743;28;20045;-75
2021/06/12 18:46:29;;;;;;;5.03;1.45;;;;;;;20.17;41.08;100677.28;5048017;28;20048;-75
2021/06/12 18:48:56;;;;;;;3.42;1.25;;;;;;;20.01;40.84;100666.28;5049045;28;20117;-75
2021/06/12 18:51:23;;;;;;;7.95;1.65;;;;;;;20.09;40.97;100681.97;5055388;28;20049;-74
2021/06/12 18:53:50;;;;;;;10.05;1.58;;;;;;;20.33;40.74;100677.72;5061442;28;20118;-75
2021/06/12 18:56:17;;;;;;;7.10;1.58;;;;;;;19.87;41.53;100683.53;5060331;28;20189;-74
2021/06/12 18:58:44;;;;;;;4.88;1.33;;;;;;;19.77;41.58;100682.06;5052999;28;20040;-74
2021/06/12 19:01:12;;;;;;;7.85;1.10;;;;;;;20.10;41.27;100682.81;5063229;28;20503;-74
2021/06/12 19:03:39;;;;;;;5.40;1.25;;;;;;;20.02;42.12;100689.25;5080211;28;20035;-76
2021/06/12 19:06:09;;;;;;;6.18;1.70;;;;;;;20.03;41.83;100692.78;5081083;28;20609;-76
2021/06/12 19:08:36;;;;;;;4.38;1.45;;;;;;;20.01;42.06;100695.47;5060421;28;20056;-76
2021/06/12 19:11:06;;;;;;;7.80;2.67;;;;;;;19.84;43.05;100694.22;5081601;28;20059;-75
2021/06/12 19:13:34;;;;;;;4.55;1.65;;;;;;;20.48;41.88;100701.09;5047938;28;20040;-75
2021/06/12 19:16:01;;;;;;;6.30;2.10;;;;;;;20.22;42.14;100703.69;5079490;28;20044;-75
2021/06/12 19:18:28;;;;;;;4.63;1.55;;;;;;;20.24;41.98;100705.38;5085339;28;20123;-74
2021/06/12 19:20:55;;;;;;;13.23;2.95;;;;;;;20.18;42.35;100710.88;5075296;28;20052;-75
2021/06/12 19:23:22;;;;;;;3.85;1.48;;;;;;;19.66;43.12;100700.06;5083362;28;20496;-73
2021/06/12 19:25:50;;;;;;;5.93;1.38;;;;;;;20.12;42.57;100700.44;5065114;28;20461;-74
2021/06/12 19:28:17;;;;;;;7.10;1.75;;;;;;;20.00;42.95;100699.03;5065683;28;20075;-74
2021/06/12 19:30:45;;;;;;;10.23;1.90;;;;;;;19.38;44.30;100694.63;5081488;28;20131;-74
2021/06/12 19:33:13;;;;;;;4.25;2.08;;;;;;;19.83;43.27;100706.63;5078054;28;20457;-76
2021/06/12 19:35:54;;;;;;;6.88;2.63;;;;;;;20.15;42.14;100708.31;5064701;28;20509;-76
2021/06/12 19:38:35;;;;;;;6.30;2.42;;;;;;;19.94;42.20;100706.31;5061219;28;20063;-74
2021/06/12 19:41:04;;;;;;;7.05;2.28;;;;;;;20.06;42.25;100720.97;5074671;28;20056;-74
2021/06/12 19:43:32;;;;;;;6.15;1.70;;;;;;;20.06;41.52;100716.53;5052236;28;20125;-74
2021/06/12 19:46:00;;;;;;;6.38;1.60;;;;;;;19.99;41.69;100715.88;5054350;28;20174;-75
2021/06/12 19:48:27;;;;;;;6.93;1.80;;;;;;;20.23;41.05;100727.53;5064788;28;20044;-74
2021/06/12 19:50:58;;;;;;;5.90;1.38;;;;;;;20.34;40.64;100730.75;5079263;28;20127;-75
2021/06/12 19:53:27;;;;;;;7.82;2.17;;;;;;;20.35;40.82;100727.19;5080727;28;20059;-73
2021/06/12 19:55:54;;;;;;;13.35;4.75;;;;;;;20.16;41.11;100731.28;5073339;28;20044;-73
2021/06/12 19:58:21;;;;;;;4.00;1.17;;;;;;;20.08;41.86;100732.44;5065227;28;20044;-73
2021/06/12 20:00:48;;;;;;;9.48;2.33;;;;;;;20.23;41.64;100739.94;5057845;28;20051;-75
2021/06/12 20:03:15;;;;;;;7.07;1.90;;;;;;;20.14;41.23;100734.91;5054419;28;20039;-75
2021/06/12 20:05:42;;;;;;;5.63;1.35;;;;;;;19.82;41.92;100728.75;5076678;28;20059;-75
2021/06/12 20:08:10;;;;;;;5.93;1.20;;;;;;;19.53;42.58;100732.22;5080214;28;20082;-75
2021/06/12 20:10:37;;;;;;;3.95;1.13;;;;;;;19.95;41.67;100737.22;5056276;28;20075;-75
2021/06/12 20:13:04;;;;;;;4.22;1.30;;;;;;;19.79;42.16;100742.09;5064640;28;20060;-74
2021/06/12 20:15:31;;;;;;;5.78;1.58;;;;;;;19.74;41.73;100743.13;5084964;28;20040;-74
2021/06/12 20:17:58;;;;;;;6.50;1.50;;;;;;;19.90;41.83;100753.25;5081116;28;20048;-74
2021/06/12 20:20:24;;;;;;;3.38;1.20;;;;;;;18.99;43.82;100753.03;5066415;28;20495;-73
2021/06/12 20:22:52;;;;;;;5.47;1.50;;;;;;;19.63;42.24;100759.34;5078718;28;20056;-73
2021/06/12 20:25:23;;;;;;;5.25;1.73;;;;;;;19.45;42.70;100754.53;5082348;28;20040;-74
2021/06/12 20:27:50;;;;;;;3.92;1.52;;;;;;;19.08;43.82;100760.78;5073798;28;20419;-74
2021/06/12 20:30:17;;;;;;;8.82;1.77;;;;;;;19.01;44.59;100758.31;5080795;28;20051;-75
2021/06/12 20:32:47;;;;;;;3.65;1.00;;;;;;;19.08;43.95;100766.06;5082017;28;20040;-74
2021/06/12 20:35:15;;;;;;;7.00;1.33;;;;;;;19.00;44.29;100769.78;5069835;28;20044;-73
2021/06/12 20:37:42;;;;;;;5.28;1.42;;;;;;;18.77;44.93;100773.00;5077674;28;20048;-73
2021/06/12 20:40:10;;;;;;;6.40;1.27;;;;;;;18.87;44.75;100766.59;5082663;28;20036;-74
2021/06/12 20:42:38;;;;;;;4.30;1.20;;;;;;;18.53;45.48;100766.50;5079335;28;20043;-75
2021/06/12 20:45:08;;;;;;;8.15;1.77;;;;;;;18.55;45.30;100755.91;5047903;28;20044;-74
2021/06/12 20:47:36;;;;;;;4.03;1.40;;;;;;;18.88;45.21;100768.34;5049229;28;20509;-75
2021/06/12 20:50:06;;;;;;;4.45;1.10;;;;;;;18.68;45.59;100766.16;5061267;28;20087;-74
2021/06/12 20:52:35;;;;;;;5.13;1.85;;;;;;;18.63;45.97;100770.69;5061872;28;20048;-74
2021/06/12 20:55:03;;;;;;;2.30;1.05;;;;;;;18.51;46.15;100773.56;5061311;28;20051;-75
2021/06/12 20:57:30;;;;;;;5.20;1.23;;;;;;;18.10;48.18;100773.59;5080074;28;20686;-74
2021/06/12 20:59:58;;;;;;;3.00;1.35;;;;;;;17.95;47.91;100781.84;5058848;28;20130;-74
2021/06/12 21:02:33;;;;;;;4.40;1.38;;;;;;;18.05;47.99;100779.00;5065192;28;20052;-73
2021/06/12 21:05:03;;;;;;;6.22;1.55;;;;;;;17.61;48.90;100778.97;5057568;28;20050;-74
2021/06/12 21:07:30;;;;;;;3.47;1.20;;;;;;;17.77;49.15;100785.72;5061888;28;20044;-74
2021/06/12 21:09:57;;;;;;;7.05;1.60;;;;;;;17.60;50.12;100785.19;5078501;28;20044;-73
2021/06/12 21:12:23;;;;;;;7.03;1.80;;;;;;;17.19;50.65;100778.84;5061575;28;20172;-75
2021/06/12 21:14:55;;;;;;;3.25;1.38;;;;;;;17.31;50.77;100780.41;5080570;28;20465;-74
2021/06/12 21:17:22;;;;;;;4.93;1.25;;;;;;;17.07;51.75;100781.69;5082407;28;20388;-74
2021/06/12 21:19:49;;;;;;;3.83;1.52;;;;;;;17.09;51.99;100787.81;5058373;28;20068;-73
2021/06/12 21:22:16;;;;;;;9.40;2.05;;;;;;;16.99;52.00;100788.84;5065058;28;20052;-73
2021/06/12 21:24:43;;;;;;;4.18;1.60;;;;;;;17.38;50.98;100793.47;5062873;28;20054;-75
2021/06/12 21:27:11;;;;;;;8.68;2.00;;;;;;;16.69;53.65;100791.97;5060708;28;20666;-74
2021/06/12 21:29:38;;;;;;;6.75;2.20;;;;;;;16.70;53.67;100783.16;5077018;28;20406;-74
2021/06/12 21:32:05;;;;;;;8.02;1.90;;;;;;;16.84;53.78;100789.97;5079114;28;20149;-75
2021/06/12 21:34:33;;;;;;;6.22;1.90;;;;;;;16.75;53.88;100789.22;5078331;28;20067;-76
2021/06/12 21:37:00;;;;;;;8.43;2.30;;;;;;;16.32;55.03;100795.09;5075749;28;20048;-75
2021/06/12 21:39:27;;;;;;;11.75;2.00;;;;;;;16.72;54.22;100800.72;5081411;28;20064;-73
2021/06/12 21:41:54;;;;;;;7.43;2.30;;;;;;;16.50;54.86;100804.50;5082184;28;20055;-73
2021/06/12 21:44:21;;;;;;;6.05;1.85;;;;;;;16.28;55.50;100801.28;5087390;28;20066;-73
2021/06/12 21:46:48;;;;;;;5.15;1.63;;;;;;;16.61;55.23;100796.47;5063355;28;20043;-73
2021/06/12 21:49:15;;;;;;;6.13;1.48;;;;;;;16.35;55.84;100799.47;5064092;28;20056;-74
2021/06/12 21:51:41;;;;;;;6.18;2.05;;;;;;;16.32;56.40;100792.44;5058045;28;20070;-73
2021/06/12 21:54:08;;;;;;;4.00;1.90;;;;;;;16.39;56.22;100796.75;5061363;28;20078;-74
2021/06/12 21:56:35;;;;;;;5.25;2.20;;;;;;;16.25;56.43;100797.84;5076756;28;20094;-75